Aérodrome :
LOGIN :

S'inscrire | Disclaimer

   EN    FR    IT 

 










Légende :    VFR   VFR Marginal   IFR   IFR Intensif   IFR Très Intensif
Visi : 
Plafond : 
>= 8 km
>= 3000ft
5 à 8 km
1000 à 3000 ft
1500m à 5 km
500 à 1000 ft
800 à 1500m
200 à 500 ft
< 800m
< 200 ft
Symboles :   Orages  Brouillard  Fortes neiges  Fortes précipitations  Vent > 20 kt
SIGMETs :   Divers  Orages  Givrage  Turbulence  Onde Orograph.  Cendres Volcan.







- Altitude de l'aérodrome : 56 ft
- Code IATA : BZR
- Voir les cartes d'approche


LFMU - Beziers / Vias

DERNIER METAR :
  • 170100Z AUTO 35004KT 9999 BKN045 OVC100 16/14 Q1018

METARs EXPIRÉS :
  • 170030Z AUTO 35005KT 9999 SCT047 BKN056 OVC100 16/14 Q1018
  • 170000Z AUTO 35005KT 9999 SCT045 OVC052 16/14 Q1018
  • 162330Z AUTO 36004KT 9999 FEW044 BKN050 BKN064 16/15 Q1018
  • 162300Z AUTO VRB03KT CAVOK 16/15 Q1019
  • 162230Z AUTO 36005KT CAVOK 16/14 Q1019

TAF AMD TAF LFMU
Valide du 16 à 17h jusqu'au 17 à 15h UTC


161719Z 1617/1715 04012KT 9999 SCT012 BKN035
TEMPO 1617/1623 4000 RA BR BKN010 FEW020CB BKN040
BECMG 1623/1701 34006KT
TEMPO 1704/1707 4000 RA BR SCT030TCU BKN050
BECMG 1710/1712 SCT030TCU BKN090
ATIS : +33 4 67 90 88 88
Pas de NOTAMs connus pour ce terrain.



MET'MAP, la Météo Aéronautique d'un coup d'oeil ! - Copyright ORBIFLY Décembre 2007 - Disclaimer

ORBIFLY MET'MAP TEAM :

Programmation & Développement : Alexandra Zaïnal
Conception & Développement : Baudouin d'Aumeries
Co-Programmation & Développement : Marc-Olivier Méhu
Soutien technique & logistique : Manuel Goepfert

Contact : metmap@orbifly.com




SOURCES & CREDITS :

   NOAA